createdAt,value
2023-03-01T00:00:47.540Z,60.00
2023-03-01T00:03:39.867Z,62.10
2023-03-01T00:06:32.450Z,58.80
2023-03-01T00:09:24.715Z,60.90
2023-03-01T00:12:17.272Z,61.00
2023-03-01T00:15:10.872Z,61.80
2023-03-01T00:18:02.954Z,71.40
2023-03-01T00:20:56.446Z,66.10
2023-03-01T00:23:49.523Z,63.10
2023-03-01T00:26:42.536Z,61.20
2023-03-01T00:29:34.614Z,59.30
2023-03-01T00:32:26.781Z,61.60
2023-03-01T00:35:19.137Z,60.20
2023-03-01T00:38:11.378Z,60.60
2023-03-01T00:41:09.575Z,58.30
2023-03-01T00:44:01.705Z,55.30
2023-03-01T00:46:54.010Z,59.60
2023-03-01T00:49:46.142Z,56.70
2023-03-01T00:52:38.294Z,58.30
2023-03-01T00:55:30.533Z,58.50
2023-03-01T00:58:12.805Z,59.50
2023-03-01T01:01:18.492Z,60.10
2023-03-01T01:04:01.894Z,59.70
2023-03-01T01:06:54.070Z,57.60
2023-03-01T01:09:46.320Z,59.70
2023-03-01T01:12:38.446Z,57.30
2023-03-01T01:15:30.765Z,59.10
2023-03-01T01:18:22.922Z,57.40
2023-03-01T01:21:17.127Z,57.70
2023-03-01T01:24:10.180Z,59.30
2023-03-01T01:27:02.344Z,58.80
2023-03-01T01:29:58.030Z,54.30
2023-03-01T01:32:50.171Z,56.00
2023-03-01T01:35:42.297Z,58.90
2023-03-01T01:38:34.631Z,57.30
2023-03-01T01:41:28.564Z,56.50
2023-03-01T01:44:18.688Z,56.80
2023-03-01T01:47:19.668Z,51.80
2023-03-01T01:50:20.425Z,57.20
2023-03-01T01:53:17.117Z,52.90
2023-03-01T01:56:13.801Z,53.90
2023-03-01T01:59:06.094Z,53.20
2023-03-01T02:02:01.177Z,52.50
2023-03-01T02:05:05.096Z,57.20
2023-03-01T02:07:58.442Z,57.10
2023-03-01T02:10:52.910Z,53.20
2023-03-01T02:13:45.740Z,54.00
2023-03-01T02:16:38.755Z,55.20
2023-03-01T02:19:42.660Z,50.50
2023-03-01T02:22:37.509Z,52.10
2023-03-01T02:25:42.556Z,49.60
2023-03-01T02:28:34.034Z,50.90
2023-03-01T02:31:44.748Z,55.90
2023-03-01T02:34:27.324Z,54.50
2023-03-01T02:37:25.773Z,53.80
2023-03-01T02:40:22.580Z,54.50
2023-03-01T02:43:16.568Z,54.30
2023-03-01T02:49:01.820Z,48.90
2023-03-01T02:52:16.184Z,51.30
2023-03-01T02:55:11.662Z,50.20
2023-03-01T02:58:05.879Z,51.80
2023-03-01T03:00:58.711Z,50.00
2023-03-01T03:03:50.884Z,52.00
2023-03-01T03:06:42.959Z,47.80
2023-03-01T03:09:35.063Z,49.70
2023-03-01T03:12:27.200Z,49.30
2023-03-01T03:15:19.507Z,48.60
2023-03-01T03:18:13.860Z,48.90
2023-03-01T03:21:11.276Z,52.30
2023-03-01T03:24:04.991Z,52.00
2023-03-01T03:26:57.066Z,48.90
2023-03-01T03:29:49.171Z,49.70
2023-03-01T03:32:41.729Z,52.10
2023-03-01T03:35:25.301Z,52.80
2023-03-01T03:38:22.841Z,44.70
2023-03-01T03:41:15.337Z,40.00
2023-03-01T03:44:07.611Z,40.10
2023-03-01T03:46:59.782Z,40.10
2023-03-01T03:49:51.893Z,39.80
2023-03-01T03:52:44.305Z,39.50
2023-03-01T03:55:40.049Z,40.70
2023-03-01T03:58:32.241Z,37.30
2023-03-01T04:01:24.405Z,40.10
2023-03-01T04:04:19.842Z,37.00
2023-03-01T04:07:12.028Z,39.00
2023-03-01T04:09:47.354Z,41.00
2023-03-01T04:12:39.501Z,44.90
2023-03-01T04:15:33.419Z,46.00
2023-03-01T04:18:27.066Z,46.80
2023-03-01T04:21:21.329Z,46.90
2023-03-01T04:24:13.545Z,48.90
2023-03-01T04:27:05.828Z,48.70
2023-03-01T04:29:57.943Z,46.80
2023-03-01T04:32:51.265Z,48.10
2023-03-01T04:35:43.513Z,50.00
2023-03-01T04:38:35.964Z,49.10
2023-03-01T04:41:28.843Z,50.30
2023-03-01T04:44:20.886Z,49.60
2023-03-01T04:47:13.325Z,48.90
2023-03-01T04:50:05.741Z,47.90
2023-03-01T04:52:59.448Z,48.90
2023-03-01T04:55:51.729Z,47.60
2023-03-01T04:58:44.045Z,44.10
2023-03-01T05:01:36.700Z,46.30
2023-03-01T05:04:29.196Z,45.40
2023-03-01T05:07:21.381Z,48.00
2023-03-01T05:10:14.003Z,51.70
2023-03-01T05:13:07.587Z,50.10
2023-03-01T05:16:01.631Z,48.60
2023-03-01T05:21:59.749Z,45.20
2023-03-01T05:24:52.042Z,48.80
2023-03-01T05:27:44.339Z,43.40
2023-03-01T05:30:37.032Z,45.30
2023-03-01T05:33:30.143Z,49.40
2023-03-01T05:36:22.317Z,44.40
2023-03-01T05:39:14.392Z,104.70
2023-03-01T05:42:09.567Z,58.60
2023-03-01T05:45:01.685Z,89.90
2023-03-01T05:47:56.073Z,53.00
2023-03-01T05:50:49.180Z,47.90
2023-03-01T05:53:41.344Z,102.40
2023-03-01T05:56:33.988Z,60.20
2023-03-01T05:59:26.102Z,60.30
2023-03-01T06:02:18.199Z,57.20
2023-03-01T06:05:13.615Z,55.20
2023-03-01T06:08:06.257Z,59.90
2023-03-01T06:10:58.414Z,54.30
2023-03-01T06:13:52.081Z,60.30
2023-03-01T06:16:44.290Z,67.00
2023-03-01T06:19:36.435Z,84.30
2023-03-01T06:22:29.265Z,79.20
2023-03-01T06:25:24.095Z,83.60
2023-03-01T06:28:16.259Z,87.70
2023-03-01T06:31:09.739Z,85.50
2023-03-01T06:34:02.190Z,61.00
2023-03-01T06:36:54.289Z,65.20
2023-03-01T06:39:46.498Z,89.40
2023-03-01T06:42:39.566Z,83.00
2023-03-01T06:45:31.707Z,67.80
2023-03-01T06:48:24.021Z,65.60
2023-03-01T06:51:16.379Z,52.50
2023-03-01T06:53:49.240Z,76.20
2023-03-01T06:56:41.370Z,65.30
2023-03-01T06:59:33.507Z,50.40
2023-03-01T07:02:25.793Z,43.50
2023-03-01T07:05:18.341Z,37.80
2023-03-01T07:08:10.585Z,47.80
2023-03-01T07:11:03.419Z,42.30
2023-03-01T07:13:56.184Z,39.70
2023-03-01T07:16:48.304Z,37.70
2023-03-01T07:19:40.421Z,38.40
2023-03-01T07:22:32.789Z,37.20
2023-03-01T07:25:24.953Z,41.70
2023-03-01T07:28:17.188Z,33.50
2023-03-01T07:31:09.935Z,36.00
2023-03-01T07:34:02.139Z,36.00
2023-03-01T07:36:54.364Z,61.80
2023-03-01T07:39:46.604Z,35.40
2023-03-01T07:42:38.828Z,33.50
2023-03-01T07:45:31.426Z,34.00
2023-03-01T07:48:23.550Z,37.10
2023-03-01T07:51:15.707Z,46.20
2023-03-01T07:54:08.125Z,40.00
2023-03-01T07:57:01.272Z,42.90
2023-03-01T07:59:53.435Z,38.80
2023-03-01T08:02:46.480Z,35.60
2023-03-01T08:05:38.629Z,40.40
2023-03-01T08:08:30.932Z,30.80
2023-03-01T08:11:23.098Z,30.10
2023-03-01T08:14:15.266Z,29.50
2023-03-01T08:17:07.490Z,30.90
2023-03-01T08:19:59.658Z,30.50
2023-03-01T08:22:51.875Z,29.60
2023-03-01T08:25:44.014Z,28.80
2023-03-01T08:28:36.525Z,25.90
2023-03-01T08:31:30.732Z,25.40
2023-03-01T08:34:14.489Z,30.00
2023-03-01T08:37:06.607Z,29.50
2023-03-01T08:39:58.743Z,25.90
2023-03-01T08:42:50.961Z,19.40
2023-03-01T08:45:43.106Z,19.20
2023-03-01T08:48:35.212Z,20.90
2023-03-01T08:51:28.264Z,18.50
2023-03-01T08:54:23.262Z,18.80
2023-03-01T08:57:15.537Z,20.70
2023-03-01T09:00:10.550Z,20.70
2023-03-01T09:03:02.732Z,17.00
2023-03-01T09:05:55.162Z,16.70
2023-03-01T09:08:48.891Z,16.10
2023-03-01T09:11:32.780Z,13.00
2023-03-01T09:14:24.881Z,15.10
2023-03-01T09:17:17.072Z,14.70
2023-03-01T09:20:11.749Z,13.50
2023-03-01T09:23:04.211Z,14.80
2023-03-01T09:25:56.408Z,12.50
2023-03-01T09:28:49.018Z,26.00
2023-03-01T09:31:42.562Z,12.10
2023-03-01T09:34:54.633Z,12.20
2023-03-01T09:37:46.794Z,18.70
2023-03-01T09:40:43.469Z,12.50
2023-03-01T09:46:18.065Z,11.80
2023-03-01T09:49:19.239Z,11.10
2023-03-01T09:52:25.455Z,12.80
2023-03-01T09:55:36.907Z,12.60
2023-03-01T09:58:43.535Z,11.60
2023-03-01T10:01:40.483Z,28.90
2023-03-01T10:04:44.801Z,12.80
2023-03-01T10:07:47.029Z,12.30
2023-03-01T10:10:42.260Z,14.10
2023-03-01T10:13:40.460Z,16.20
2023-03-01T10:16:42.272Z,20.20
2023-03-01T10:19:29.348Z,16.80
2023-03-01T10:22:24.065Z,15.70
2023-03-01T10:25:23.174Z,13.40
2023-03-01T10:28:22.303Z,13.10
2023-03-01T10:31:17.070Z,13.80
2023-03-01T10:34:21.318Z,14.80
2023-03-01T10:37:16.539Z,11.10
2023-03-01T10:40:11.517Z,11.40
2023-03-01T10:43:07.043Z,12.50
2023-03-01T10:45:59.190Z,11.50
2023-03-01T10:49:09.760Z,12.60
2023-03-01T10:52:20.583Z,13.10
2023-03-01T10:55:30.072Z,17.10
2023-03-01T10:58:23.825Z,12.70
2023-03-01T11:01:30.709Z,13.10
2023-03-01T11:04:23.060Z,11.80
2023-03-01T11:07:15.179Z,12.10
2023-03-01T11:09:57.785Z,12.00
2023-03-01T11:12:46.293Z,11.90
2023-03-01T11:15:38.553Z,13.50
2023-03-01T11:18:46.385Z,13.20
2023-03-01T11:21:43.205Z,13.60
2023-03-01T11:24:48.166Z,16.70
2023-03-01T11:27:46.585Z,14.50
2023-03-01T11:30:43.338Z,13.20
2023-03-01T11:33:43.236Z,12.30
2023-03-01T11:36:42.632Z,12.10
2023-03-01T11:39:40.792Z,13.70
2023-03-01T11:42:44.817Z,22.00
2023-03-01T11:48:51.993Z,20.20
2023-03-01T11:51:57.366Z,15.90
2023-03-01T11:54:43.107Z,12.90
2023-03-01T11:57:54.120Z,15.40
2023-03-01T12:01:02.627Z,13.80
2023-03-01T12:04:11.273Z,11.00
2023-03-01T12:07:10.364Z,9.60
2023-03-01T12:10:24.336Z,10.30
2023-03-01T12:13:45.915Z,11.30
2023-03-01T12:16:49.823Z,11.30
2023-03-01T12:19:58.727Z,10.80
2023-03-01T12:22:46.784Z,9.60
2023-03-01T12:25:43.889Z,8.90
2023-03-01T12:29:03.244Z,9.30
2023-03-01T12:32:23.059Z,10.30
2023-03-01T12:35:33.952Z,10.80
2023-03-01T12:38:35.062Z,12.10
2023-03-01T12:41:48.641Z,9.30
2023-03-01T12:45:01.769Z,9.10
2023-03-01T12:48:07.775Z,8.10
2023-03-01T12:51:05.415Z,8.40
2023-03-01T12:54:00.613Z,8.00
2023-03-01T12:56:54.183Z,8.70
2023-03-01T13:00:01.643Z,8.60
2023-03-01T13:03:02.460Z,9.70
2023-03-01T13:05:57.116Z,8.00
2023-03-01T13:08:57.867Z,8.00
2023-03-01T13:11:49.962Z,8.20
2023-03-01T13:14:48.313Z,8.60
2023-03-01T13:17:48.252Z,9.20
2023-03-01T13:20:51.810Z,10.00
2023-03-01T13:23:58.914Z,9.10
2023-03-01T13:27:21.854Z,10.10
2023-03-01T13:30:42.414Z,10.10
2023-03-01T13:33:50.929Z,9.90
2023-03-01T13:36:53.415Z,9.80
2023-03-01T13:39:45.549Z,9.90
2023-03-01T13:42:56.247Z,9.70
2023-03-01T13:45:52.867Z,10.10
2023-03-01T13:48:49.092Z,10.30
2023-03-01T13:51:41.301Z,9.90
2023-03-01T13:54:35.223Z,9.20
2023-03-01T13:57:32.436Z,10.80
2023-03-01T14:00:38.680Z,11.10
2023-03-01T14:03:32.745Z,11.00
2023-03-01T14:06:27.036Z,10.80
2023-03-01T14:12:36.601Z,11.50
2023-03-01T14:15:29.698Z,11.10
2023-03-01T14:18:26.672Z,12.30
2023-03-01T14:21:19.791Z,18.70
2023-03-01T14:24:22.793Z,13.50
2023-03-01T14:27:16.407Z,12.00
2023-03-01T14:30:17.213Z,12.90
2023-03-01T14:33:27.236Z,11.70
2023-03-01T14:36:28.581Z,11.90
2023-03-01T14:39:26.532Z,12.80
2023-03-01T14:42:20.246Z,11.40
2023-03-01T14:45:16.949Z,12.20
2023-03-01T14:48:10.179Z,11.00
2023-03-01T14:51:02.334Z,11.20
2023-03-01T14:53:54.854Z,12.60
2023-03-01T14:56:50.349Z,19.20
2023-03-01T14:59:43.385Z,13.50
2023-03-01T15:02:36.474Z,11.30
2023-03-01T15:05:31.883Z,10.90
2023-03-01T15:08:27.305Z,12.10
2023-03-01T15:11:25.843Z,11.10
2023-03-01T15:14:49.479Z,10.70
2023-03-01T15:17:44.559Z,10.70
2023-03-01T15:20:37.380Z,10.10
2023-03-01T15:23:31.992Z,9.60
2023-03-01T15:26:30.473Z,10.20
2023-03-01T15:29:25.199Z,9.30
2023-03-01T15:32:31.556Z,10.20
2023-03-01T15:35:46.569Z,10.30
2023-03-01T15:38:55.229Z,16.00
2023-03-01T15:41:51.662Z,9.10
2023-03-01T15:44:46.492Z,8.60
2023-03-01T15:47:31.842Z,8.50
2023-03-01T15:50:27.908Z,7.10
2023-03-01T15:53:20.015Z,8.00
2023-03-01T15:56:14.236Z,7.40
2023-03-01T15:59:08.234Z,9.00
2023-03-01T16:02:00.386Z,7.90
2023-03-01T16:04:54.660Z,9.90
2023-03-01T16:07:46.889Z,30.30
2023-03-01T16:10:39.895Z,20.70
2023-03-01T16:13:32.534Z,19.60
2023-03-01T16:16:13.570Z,20.40
2023-03-01T16:19:05.727Z,10.60
2023-03-01T16:21:57.909Z,23.80
2023-03-01T16:24:49.991Z,22.70
2023-03-01T16:27:25.046Z,13.40
2023-03-01T16:30:19.612Z,9.70
2023-03-01T16:33:26.748Z,10.90
2023-03-01T16:36:26.571Z,18.50
2023-03-01T16:39:18.656Z,14.50
2023-03-01T16:42:10.779Z,13.80
2023-03-01T16:45:07.115Z,12.00
2023-03-01T16:48:04.197Z,11.90
2023-03-01T16:51:03.612Z,11.30
2023-03-01T16:53:56.060Z,12.60
2023-03-01T16:56:48.208Z,11.60
2023-03-01T16:59:40.445Z,10.90
2023-03-01T17:02:32.485Z,11.60
2023-03-01T17:05:26.055Z,11.30
2023-03-01T17:08:18.212Z,12.10
2023-03-01T17:11:12.424Z,13.60
2023-03-01T17:14:04.555Z,15.10
2023-03-01T17:16:56.633Z,19.00
2023-03-01T17:19:28.678Z,19.10
2023-03-01T17:22:20.953Z,19.10
2023-03-01T17:25:14.082Z,19.30
2023-03-01T17:28:06.513Z,18.50
2023-03-01T17:30:59.984Z,18.20
2023-03-01T17:33:52.542Z,19.40
2023-03-01T17:36:47.123Z,21.30
2023-03-01T17:39:39.185Z,23.20
2023-03-01T17:42:31.229Z,32.10
2023-03-01T17:45:23.278Z,31.60
2023-03-01T17:48:16.018Z,32.00
2023-03-01T17:51:11.244Z,44.10
2023-03-01T17:54:03.465Z,40.50
2023-03-01T17:56:56.427Z,32.70
2023-03-01T17:59:48.626Z,30.40
2023-03-01T18:02:41.024Z,32.00
2023-03-01T18:05:36.624Z,31.10
2023-03-01T18:08:28.892Z,26.60
2023-03-01T18:11:22.436Z,26.80
2023-03-01T18:14:14.621Z,26.20
2023-03-01T18:17:11.923Z,27.40
2023-03-01T18:20:04.612Z,27.20
2023-03-01T18:22:56.802Z,24.80
2023-03-01T18:25:29.076Z,24.60
2023-03-01T18:28:22.830Z,29.10
2023-03-01T18:31:43.942Z,30.10
2023-03-01T18:34:30.458Z,34.60
2023-03-01T18:37:22.878Z,47.10
2023-03-01T18:40:15.355Z,53.50
2023-03-01T18:43:07.482Z,51.00
2023-03-01T18:46:01.058Z,45.00
2023-03-01T18:48:54.936Z,43.50
2023-03-01T18:51:47.159Z,41.70
2023-03-01T18:54:39.288Z,40.30
2023-03-01T18:57:31.533Z,37.70
2023-03-01T19:00:25.440Z,37.30
2023-03-01T19:03:17.647Z,36.70
2023-03-01T19:06:02.106Z,36.10
2023-03-01T19:08:56.051Z,34.30
2023-03-01T19:11:48.157Z,33.80
2023-03-01T19:14:40.398Z,35.40
2023-03-01T19:17:32.855Z,40.20
2023-03-01T19:20:25.186Z,45.30
2023-03-01T19:23:17.573Z,46.50
2023-03-01T19:26:12.589Z,47.80
2023-03-01T19:29:06.167Z,43.70
2023-03-01T19:31:58.203Z,41.40
2023-03-01T19:34:50.344Z,42.20
2023-03-01T19:37:42.455Z,42.60
2023-03-01T19:40:36.671Z,43.50
2023-03-01T19:43:28.835Z,41.60
2023-03-01T19:46:21.155Z,41.90
2023-03-01T19:49:13.502Z,43.70
2023-03-01T19:52:06.114Z,44.40
2023-03-01T19:55:08.860Z,44.00
2023-03-01T19:58:01.679Z,46.30
2023-03-01T20:00:58.771Z,47.80
2023-03-01T20:03:51.395Z,48.80
2023-03-01T20:06:47.924Z,50.70
2023-03-01T20:09:41.624Z,51.50
2023-03-01T20:12:33.734Z,50.80
2023-03-01T20:15:26.216Z,49.50
2023-03-01T20:18:19.180Z,49.70
2023-03-01T20:21:22.843Z,53.00
2023-03-01T20:24:16.161Z,49.40
2023-03-01T20:27:08.248Z,53.80
2023-03-01T20:30:00.718Z,52.00
2023-03-01T20:32:52.863Z,53.20
2023-03-01T20:35:45.842Z,53.70
2023-03-01T20:38:38.623Z,53.30
2023-03-01T20:41:30.806Z,56.00
2023-03-01T20:44:22.942Z,55.10
2023-03-01T20:47:15.678Z,53.80
2023-03-01T20:50:08.659Z,54.70
2023-03-01T20:53:03.475Z,57.70
2023-03-01T20:55:55.624Z,59.60
2023-03-01T20:58:48.186Z,60.70
2023-03-01T21:01:29.409Z,59.80
2023-03-01T21:04:21.923Z,61.30
2023-03-01T21:07:14.192Z,66.80
2023-03-01T21:10:06.988Z,61.70
2023-03-01T21:12:59.176Z,63.90
2023-03-01T21:15:56.948Z,64.00
2023-03-01T21:18:30.827Z,66.40
2023-03-01T21:21:25.796Z,63.70
2023-03-01T21:24:18.352Z,66.50
2023-03-01T21:27:10.878Z,61.00
2023-03-01T21:30:02.969Z,68.60
2023-03-01T21:32:55.165Z,67.10
2023-03-01T21:35:47.284Z,62.60
2023-03-01T21:38:22.132Z,64.50
2023-03-01T21:41:16.563Z,65.80
2023-03-01T21:44:09.648Z,63.20
2023-03-01T21:47:01.788Z,64.70
2023-03-01T21:49:54.075Z,65.60
2023-03-01T21:52:46.110Z,66.00
2023-03-01T21:55:38.197Z,63.20
2023-03-01T21:58:31.548Z,67.50
2023-03-01T22:01:26.040Z,66.90
2023-03-01T22:04:18.749Z,66.70
2023-03-01T22:07:10.949Z,68.80
2023-03-01T22:10:03.075Z,68.00
2023-03-01T22:12:55.789Z,68.40
2023-03-01T22:15:30.477Z,67.80
2023-03-01T22:18:22.571Z,72.00
2023-03-01T22:21:15.601Z,67.90
2023-03-01T22:24:09.488Z,70.20
2023-03-01T22:27:01.737Z,66.50
2023-03-01T22:29:54.044Z,64.90
2023-03-01T22:32:28.901Z,66.90
2023-03-01T22:35:21.292Z,65.20
2023-03-01T22:38:13.453Z,64.60
2023-03-01T22:41:00.915Z,65.90
2023-03-01T22:43:52.971Z,65.80
2023-03-01T22:46:46.108Z,63.80
2023-03-01T22:49:38.390Z,64.80
2023-03-01T22:52:30.574Z,61.80
2023-03-01T22:55:23.173Z,60.10
2023-03-01T22:58:15.255Z,65.30
2023-03-01T23:01:13.760Z,64.00
2023-03-01T23:04:06.189Z,63.70
2023-03-01T23:06:58.334Z,61.90
2023-03-01T23:09:51.190Z,61.30
2023-03-01T23:12:43.542Z,61.70
2023-03-01T23:15:35.650Z,64.30
2023-03-01T23:18:10.689Z,61.90
2023-03-01T23:20:45.777Z,58.00
2023-03-01T23:23:38.420Z,62.10
2023-03-01T23:26:31.727Z,63.30
2023-03-01T23:29:24.280Z,61.10
2023-03-01T23:32:16.492Z,62.30
2023-03-01T23:35:11.144Z,60.50
2023-03-01T23:38:03.563Z,55.60
2023-03-01T23:40:55.672Z,63.10
2023-03-01T23:43:49.333Z,62.30
2023-03-01T23:46:42.993Z,59.50
2023-03-01T23:49:35.122Z,62.20
2023-03-01T23:52:27.331Z,58.50
2023-03-01T23:55:20.508Z,59.40
2023-03-01T23:58:12.833Z,59.90
